Blodgett, Mississippi
Current Conditions -  °F | °C
As of 4:35 PM on Tuesday 21 Oct 2014 (Local Time) from KPIB Reporting Station
Clear Clear  
Wind Chill: 79°   Ceiling: Unl
Heat Index: 79°   Visibility: 10mi
Dew Point: 54°   Wind: 9mph
Humidity: 42%   Direction: 30°NNE
Pressure: 30.01"   Gusts: NA
Location:  31.4763°N, 89.0262°W
Report Text: KPIB 212135Z AUTO 03008KT 10SM CLR 26/12 A3001 RMK AO1
Loading
Personal Weather Stations






























Interactive Weather Map
Tropical Storm Tracking
New forecast layout! Learn more

10-Day Weather Forecast

Advertisements
Track Severe Weather on mobile